createdAt,value
2018-08-12T00:00:13.741Z,3.35
2018-08-12T00:02:42.677Z,3.15
2018-08-12T00:05:11.460Z,3.50
2018-08-12T00:07:40.338Z,3.50
2018-08-12T00:10:10.163Z,3.17
2018-08-12T00:12:39.029Z,3.00
2018-08-12T00:15:09.771Z,2.70
2018-08-12T00:17:38.683Z,3.02
2018-08-12T00:20:10.178Z,2.58
2018-08-12T00:22:39.246Z,2.22
2018-08-12T00:25:11.201Z,3.30
2018-08-12T00:27:40.050Z,3.05
2018-08-12T00:30:10.521Z,3.40
2018-08-12T00:32:39.309Z,2.35
2018-08-12T00:35:11.023Z,3.10
2018-08-12T00:37:40.327Z,3.60
2018-08-12T00:40:10.561Z,3.15
2018-08-12T00:42:39.391Z,3.65
2018-08-12T00:45:14.838Z,2.75
2018-08-12T00:47:43.798Z,3.08
2018-08-12T00:50:13.420Z,2.87
2018-08-12T00:52:42.256Z,2.65
2018-08-12T00:55:13.317Z,3.17
2018-08-12T00:57:42.912Z,2.92
2018-08-12T01:00:14.113Z,2.55
2018-08-12T01:02:42.955Z,1.98
2018-08-12T01:05:13.756Z,2.22
2018-08-12T01:07:42.989Z,2.75
2018-08-12T01:10:12.299Z,3.00
2018-08-12T01:12:48.050Z,2.90
2018-08-12T01:15:26.443Z,3.10
2018-08-12T01:18:00.171Z,2.40
2018-08-12T01:20:34.324Z,2.45
2018-08-12T01:23:08.763Z,2.40
2018-08-12T01:25:43.783Z,2.52
2018-08-12T01:28:17.816Z,2.35
2018-08-12T01:30:53.019Z,2.65
2018-08-12T01:33:21.848Z,2.98
2018-08-12T01:35:50.664Z,2.70
2018-08-12T01:38:19.394Z,2.47
2018-08-12T01:40:48.118Z,2.70
2018-08-12T01:43:16.897Z,2.70
2018-08-12T01:45:45.605Z,2.30
2018-08-12T01:48:14.270Z,2.12
2018-08-12T01:50:42.954Z,1.80
2018-08-12T01:53:11.784Z,2.80
2018-08-12T01:55:40.610Z,2.58
2018-08-12T01:58:09.553Z,2.58
2018-08-12T02:00:38.312Z,2.37
2018-08-12T02:03:07.072Z,2.60
2018-08-12T02:05:35.809Z,2.47
2018-08-12T02:08:04.617Z,2.60
2018-08-12T02:10:33.469Z,2.85
2018-08-12T02:13:02.284Z,3.00
2018-08-12T02:15:31.050Z,2.62
2018-08-12T02:17:59.793Z,2.85
2018-08-12T02:20:28.501Z,2.60
2018-08-12T02:22:57.355Z,1.98
2018-08-12T02:25:26.100Z,2.35
2018-08-12T02:27:54.864Z,2.72
2018-08-12T02:30:23.602Z,2.40
2018-08-12T02:32:52.309Z,2.70
2018-08-12T02:35:21.067Z,2.40
2018-08-12T02:37:49.888Z,2.80
2018-08-12T02:40:18.647Z,2.67
2018-08-12T02:42:47.392Z,2.50
2018-08-12T02:45:16.703Z,2.95
2018-08-12T02:47:45.431Z,2.85
2018-08-12T02:50:14.258Z,2.42
2018-08-12T02:52:43.132Z,2.52
2018-08-12T02:55:12.092Z,2.85
2018-08-12T02:57:40.970Z,2.17
2018-08-12T03:00:11.286Z,3.10
2018-08-12T03:02:40.070Z,2.60
2018-08-12T03:05:08.887Z,2.00
2018-08-12T03:07:37.615Z,2.70
2018-08-12T03:10:06.789Z,2.50
2018-08-12T03:12:35.607Z,3.02
2018-08-12T03:15:05.341Z,2.80
2018-08-12T03:17:34.132Z,2.70
2018-08-12T03:20:02.913Z,2.75
2018-08-12T03:22:31.732Z,3.10
2018-08-12T03:25:00.462Z,3.08
2018-08-12T03:27:29.181Z,3.30
2018-08-12T03:29:58.037Z,3.05
2018-08-12T03:32:26.726Z,3.02
2018-08-12T03:34:55.500Z,2.85
2018-08-12T03:37:24.177Z,2.83
2018-08-12T03:39:52.932Z,2.35
2018-08-12T03:42:21.741Z,2.67
2018-08-12T03:44:50.433Z,3.40
2018-08-12T03:47:19.076Z,2.90
2018-08-12T03:49:47.955Z,2.70
2018-08-12T03:52:16.657Z,3.10
2018-08-12T03:54:45.396Z,2.95
2018-08-12T03:57:14.170Z,2.95
2018-08-12T03:59:42.921Z,3.45
2018-08-12T04:02:11.740Z,3.20
2018-08-12T04:04:40.477Z,3.20
2018-08-12T04:07:09.229Z,3.05
2018-08-12T04:09:37.924Z,3.00
2018-08-12T04:12:06.721Z,2.65
2018-08-12T04:14:35.466Z,3.05
2018-08-12T04:17:04.250Z,2.90
2018-08-12T04:19:33.025Z,3.30
2018-08-12T04:22:02.267Z,3.12
2018-08-12T04:24:31.000Z,3.37
2018-08-12T04:26:59.729Z,3.05
2018-08-12T04:29:28.480Z,3.45
2018-08-12T04:31:57.228Z,3.20
2018-08-12T04:34:25.966Z,3.33
2018-08-12T04:36:54.652Z,3.40
2018-08-12T04:39:23.383Z,3.22
2018-08-12T04:41:52.127Z,3.25
2018-08-12T04:44:20.919Z,3.50
2018-08-12T04:46:49.722Z,3.20
2018-08-12T04:49:18.492Z,3.27
2018-08-12T04:51:47.272Z,3.02
2018-08-12T04:54:15.978Z,2.77
2018-08-12T04:56:44.757Z,2.92
2018-08-12T04:59:13.477Z,2.77
2018-08-12T05:01:42.195Z,2.85
2018-08-12T05:04:10.963Z,3.40
2018-08-12T05:06:39.725Z,3.15
2018-08-12T05:09:10.396Z,3.33
2018-08-12T05:11:39.544Z,2.70
2018-08-12T05:14:08.313Z,2.65
2018-08-12T05:16:37.200Z,3.40
2018-08-12T05:19:06.054Z,2.95
2018-08-12T05:21:34.716Z,3.22
2018-08-12T05:24:03.564Z,3.20
2018-08-12T05:26:32.341Z,2.90
2018-08-12T05:29:01.069Z,3.05
2018-08-12T05:31:29.774Z,3.35
2018-08-12T05:33:58.584Z,3.90
2018-08-12T05:36:27.261Z,3.67
2018-08-12T05:38:55.990Z,4.20
2018-08-12T05:41:24.721Z,3.55
2018-08-12T05:43:53.474Z,4.10
2018-08-12T05:46:22.296Z,3.20
2018-08-12T05:48:51.164Z,3.75
2018-08-12T05:51:19.862Z,4.40
2018-08-12T05:53:48.635Z,3.60
2018-08-12T05:56:17.392Z,4.65
2018-08-12T05:58:46.140Z,4.10
2018-08-12T06:01:14.848Z,3.65
2018-08-12T06:03:43.570Z,4.17
2018-08-12T06:06:12.350Z,2.75
2018-08-12T06:08:41.134Z,4.12
2018-08-12T06:11:09.917Z,4.10
2018-08-12T06:13:38.658Z,3.37
2018-08-12T06:16:07.559Z,4.62
2018-08-12T06:18:36.286Z,3.35
2018-08-12T06:21:05.090Z,3.25
2018-08-12T06:23:33.820Z,3.80
2018-08-12T06:26:02.657Z,3.40
2018-08-12T06:28:31.438Z,3.08
2018-08-12T06:31:00.239Z,3.00
2018-08-12T06:33:29.062Z,3.98
2018-08-12T06:35:57.800Z,2.80
2018-08-12T06:38:26.550Z,3.52
2018-08-12T06:40:55.293Z,3.75
2018-08-12T06:43:24.164Z,3.50
2018-08-12T06:45:52.966Z,3.62
2018-08-12T06:48:21.761Z,3.50
2018-08-12T06:50:50.514Z,3.35
2018-08-12T06:53:19.371Z,3.02
2018-08-12T06:55:48.165Z,3.45
2018-08-12T06:58:16.980Z,2.42
2018-08-12T07:00:45.767Z,3.00
2018-08-12T07:03:14.581Z,3.50
2018-08-12T07:05:43.328Z,3.05
2018-08-12T07:08:12.109Z,3.50
2018-08-12T07:10:40.934Z,2.98
2018-08-12T07:13:09.672Z,3.10
2018-08-12T07:15:38.626Z,3.10
2018-08-12T07:18:07.430Z,2.75
2018-08-12T07:20:36.294Z,2.42
2018-08-12T07:23:05.065Z,2.80
2018-08-12T07:25:33.809Z,2.70
2018-08-12T07:28:02.696Z,2.85
2018-08-12T07:30:31.552Z,3.40
2018-08-12T07:33:00.274Z,2.52
2018-08-12T07:35:29.049Z,2.40
2018-08-12T07:37:57.853Z,2.77
2018-08-12T07:40:26.634Z,2.90
2018-08-12T07:42:55.488Z,2.70
2018-08-12T07:45:24.349Z,2.90
2018-08-12T07:47:53.107Z,3.60
2018-08-12T07:50:21.818Z,2.97
2018-08-12T07:52:50.605Z,3.23
2018-08-12T07:55:19.327Z,2.57
2018-08-12T07:57:48.149Z,2.60
2018-08-12T08:00:19.497Z,2.47
2018-08-12T08:02:48.677Z,2.70
2018-08-12T08:05:17.450Z,3.10
2018-08-12T08:07:46.180Z,3.00
2018-08-12T08:10:16.230Z,2.80
2018-08-12T08:12:45.083Z,2.53
2018-08-12T08:15:17.574Z,2.63
2018-08-12T08:17:46.436Z,2.57
2018-08-12T08:20:16.026Z,3.33
2018-08-12T08:22:45.321Z,3.00
2018-08-12T08:25:14.301Z,2.47
2018-08-12T08:27:43.113Z,3.40
2018-08-12T08:30:16.500Z,2.23
2018-08-12T08:32:45.236Z,2.80
2018-08-12T08:35:14.460Z,2.40
2018-08-12T08:37:43.624Z,3.07
2018-08-12T08:40:15.172Z,2.63
2018-08-12T08:42:43.925Z,2.40
2018-08-12T08:45:15.016Z,2.50
2018-08-12T08:47:45.535Z,2.60
2018-08-12T08:50:14.440Z,2.70
2018-08-12T08:52:43.237Z,2.53
2018-08-12T08:55:12.997Z,2.40
2018-08-12T08:57:41.798Z,2.20
2018-08-12T09:00:13.600Z,1.77
2018-08-12T09:02:43.924Z,2.40
2018-08-12T09:05:13.965Z,2.20
2018-08-12T09:07:42.969Z,1.70
2018-08-12T09:10:13.501Z,3.10
2018-08-12T09:12:42.297Z,1.90
2018-08-12T09:15:13.641Z,2.20
2018-08-12T09:17:43.137Z,2.00
2018-08-12T09:20:13.855Z,2.50
2018-08-12T09:22:42.920Z,2.70
2018-08-12T09:25:12.425Z,2.43
2018-08-12T09:27:41.249Z,2.43
2018-08-12T09:30:15.050Z,2.40
2018-08-12T09:32:44.093Z,2.47
2018-08-12T09:35:12.854Z,2.33
2018-08-12T09:37:41.645Z,2.20
2018-08-12T09:40:12.688Z,1.97
2018-08-12T09:42:42.295Z,2.33
2018-08-12T09:45:13.409Z,1.57
2018-08-12T09:47:42.168Z,2.10
2018-08-12T09:50:12.322Z,2.17
2018-08-12T09:52:41.528Z,2.00
2018-08-12T09:55:10.884Z,2.03
2018-08-12T09:57:39.672Z,1.70
2018-08-12T10:00:12.287Z,2.17
2018-08-12T10:02:41.072Z,2.47
2018-08-12T10:05:09.814Z,2.20
2018-08-12T10:07:38.563Z,2.40
2018-08-12T10:10:07.355Z,1.70
2018-08-12T10:12:36.250Z,1.50
2018-08-12T10:15:05.830Z,2.27
2018-08-12T10:17:34.788Z,2.13
2018-08-12T10:20:03.619Z,1.90
2018-08-12T10:22:32.525Z,2.07
2018-08-12T10:25:01.178Z,1.60
2018-08-12T10:27:29.997Z,1.90
2018-08-12T10:29:58.732Z,1.87
2018-08-12T10:32:27.516Z,2.00
2018-08-12T10:34:56.302Z,1.40
2018-08-12T10:37:25.000Z,1.93
2018-08-12T10:39:53.772Z,2.03
2018-08-12T10:42:22.463Z,1.73
2018-08-12T10:44:51.244Z,2.23
2018-08-12T10:47:19.984Z,1.73
2018-08-12T10:49:48.814Z,1.63
2018-08-12T10:52:17.528Z,2.10
2018-08-12T10:54:46.365Z,1.60
2018-08-12T10:57:15.339Z,2.00
2018-08-12T10:59:44.181Z,1.60
2018-08-12T11:02:13.043Z,1.77
2018-08-12T11:04:41.956Z,2.30
2018-08-12T11:07:10.762Z,1.93
2018-08-12T11:09:39.596Z,1.80
2018-08-12T11:12:08.441Z,1.80
2018-08-12T11:14:37.242Z,1.70
2018-08-12T11:17:06.144Z,1.80
2018-08-12T11:19:34.910Z,1.87
2018-08-12T11:22:03.811Z,1.60
2018-08-12T11:24:32.649Z,2.43
2018-08-12T11:27:01.361Z,2.10
2018-08-12T11:29:30.109Z,1.70
2018-08-12T11:31:58.852Z,1.80
2018-08-12T11:34:27.658Z,1.73
2018-08-12T11:36:56.444Z,1.40
2018-08-12T11:39:25.215Z,1.33
2018-08-12T11:41:54.038Z,1.70
2018-08-12T11:44:22.963Z,2.27
2018-08-12T11:46:51.680Z,1.50
2018-08-12T11:49:20.472Z,1.67
2018-08-12T11:51:49.392Z,1.63
2018-08-12T11:54:18.184Z,1.23
2018-08-12T11:56:46.951Z,1.57
2018-08-12T11:59:15.715Z,1.20
2018-08-12T12:01:44.414Z,1.77
2018-08-12T12:04:13.154Z,1.80
2018-08-12T12:06:41.976Z,1.43
2018-08-12T12:09:11.357Z,1.67
2018-08-12T12:11:40.203Z,1.70
2018-08-12T12:14:08.944Z,1.37
2018-08-12T12:16:37.652Z,1.40
2018-08-12T12:19:06.450Z,1.60
2018-08-12T12:21:35.169Z,1.20
2018-08-12T12:24:03.950Z,1.50
2018-08-12T12:26:32.690Z,1.50
2018-08-12T12:29:01.528Z,1.20
2018-08-12T12:31:30.237Z,2.20
2018-08-12T12:33:59.065Z,1.43
2018-08-12T12:36:27.813Z,2.27
2018-08-12T12:38:56.544Z,2.23
2018-08-12T12:41:25.405Z,1.90
2018-08-12T12:43:54.171Z,1.50
2018-08-12T12:46:22.982Z,1.60
2018-08-12T12:48:51.772Z,2.00
2018-08-12T12:51:20.467Z,1.60
2018-08-12T12:53:49.278Z,1.40
2018-08-12T12:56:18.092Z,2.07
2018-08-12T12:58:46.828Z,1.73
2018-08-12T13:01:15.546Z,1.77
2018-08-12T13:03:44.314Z,1.43
2018-08-12T13:06:13.081Z,1.77
2018-08-12T13:08:41.817Z,1.67
2018-08-12T13:11:10.637Z,1.80
2018-08-12T13:13:39.411Z,1.50
2018-08-12T13:16:08.218Z,1.90
2018-08-12T13:18:36.972Z,2.00
2018-08-12T13:21:05.926Z,1.70
2018-08-12T13:23:34.725Z,1.60
2018-08-12T13:26:03.514Z,1.70
2018-08-12T13:28:32.316Z,1.50
2018-08-12T13:31:01.080Z,1.47
2018-08-12T13:33:29.893Z,1.33
2018-08-12T13:35:58.688Z,1.47
2018-08-12T13:38:27.575Z,2.03
2018-08-12T13:40:56.295Z,1.70
2018-08-12T13:43:25.142Z,2.07
2018-08-12T13:45:53.867Z,2.00
2018-08-12T13:48:22.686Z,1.73
2018-08-12T13:50:51.481Z,1.67
2018-08-12T13:53:20.323Z,1.77
2018-08-12T13:55:49.108Z,1.70
2018-08-12T13:58:17.944Z,1.70
2018-08-12T14:00:46.700Z,1.83
2018-08-12T14:03:15.523Z,1.73
2018-08-12T14:05:44.283Z,1.73
2018-08-12T14:08:13.028Z,1.90
2018-08-12T14:10:41.874Z,2.13
2018-08-12T14:13:10.613Z,1.70
2018-08-12T14:15:39.412Z,1.93
2018-08-12T14:18:08.194Z,1.70
2018-08-12T14:20:37.022Z,1.97
2018-08-12T14:23:05.840Z,1.90
2018-08-12T14:25:34.569Z,1.83
2018-08-12T14:28:03.287Z,1.60
2018-08-12T14:30:31.999Z,2.10
2018-08-12T14:33:00.768Z,1.77
2018-08-12T14:35:29.603Z,1.63
2018-08-12T14:37:58.369Z,1.50
2018-08-12T14:40:27.143Z,1.90
2018-08-12T14:42:55.889Z,1.73
2018-08-12T14:45:24.710Z,1.90
2018-08-12T14:47:53.433Z,2.20
2018-08-12T14:50:22.305Z,1.67
2018-08-12T14:52:51.101Z,1.80
2018-08-12T14:55:20.812Z,1.93
2018-08-12T14:57:50.351Z,1.87
2018-08-12T15:00:20.328Z,2.57
2018-08-12T15:02:50.264Z,1.53
2018-08-12T15:05:19.566Z,2.10
2018-08-12T15:07:48.449Z,1.77
2018-08-12T15:10:17.229Z,2.17
2018-08-12T15:12:46.082Z,1.67
2018-08-12T15:15:16.007Z,1.93
2018-08-12T15:17:45.653Z,2.20
2018-08-12T15:20:15.303Z,1.90
2018-08-12T15:22:44.174Z,2.17
2018-08-12T15:25:16.105Z,2.07
2018-08-12T15:27:45.084Z,1.77
2018-08-12T15:30:13.866Z,1.80
2018-08-12T15:32:42.739Z,1.77
2018-08-12T15:35:11.620Z,1.70
2018-08-12T15:37:40.405Z,2.30
2018-08-12T15:40:10.992Z,1.83
2018-08-12T15:42:40.022Z,1.83
2018-08-12T15:45:11.126Z,1.80
2018-08-12T15:47:40.511Z,1.83
2018-08-12T15:50:10.205Z,1.73
2018-08-12T15:52:39.532Z,2.00
2018-08-12T15:55:08.867Z,2.37
2018-08-12T15:57:37.790Z,2.20
2018-08-12T16:00:10.302Z,1.67
2018-08-12T16:02:39.056Z,2.10
2018-08-12T16:05:07.832Z,1.90
2018-08-12T16:07:36.611Z,2.03
2018-08-12T16:10:07.346Z,2.10
2018-08-12T16:12:36.089Z,1.80
2018-08-12T16:15:07.341Z,2.40
2018-08-12T16:17:36.123Z,1.53
2018-08-12T16:20:06.003Z,1.97
2018-08-12T16:22:34.770Z,2.27
2018-08-12T16:25:03.617Z,2.03
2018-08-12T16:27:32.381Z,1.80
2018-08-12T16:30:01.224Z,1.57
2018-08-12T16:32:29.989Z,1.83
2018-08-12T16:34:58.796Z,2.03
2018-08-12T16:37:27.553Z,2.23
2018-08-12T16:39:56.332Z,1.60
2018-08-12T16:42:25.112Z,2.27
2018-08-12T16:44:53.861Z,1.87
2018-08-12T16:47:22.655Z,2.20
2018-08-12T16:49:51.448Z,1.37
2018-08-12T16:52:20.449Z,2.47
2018-08-12T16:54:49.165Z,1.60
2018-08-12T16:57:18.111Z,2.07
2018-08-12T16:59:46.816Z,2.50
2018-08-12T17:02:15.596Z,2.00
2018-08-12T17:04:44.493Z,2.20
2018-08-12T17:07:13.171Z,1.87
2018-08-12T17:09:41.920Z,1.80
2018-08-12T17:12:10.651Z,2.10
2018-08-12T17:14:39.490Z,2.07
2018-08-12T17:17:08.402Z,2.10
2018-08-12T17:19:37.179Z,1.90
2018-08-12T17:22:05.994Z,1.50
2018-08-12T17:24:34.741Z,2.17
2018-08-12T17:27:03.544Z,1.93
2018-08-12T17:29:32.274Z,1.70
2018-08-12T17:32:01.046Z,2.10
2018-08-12T17:34:29.898Z,2.20
2018-08-12T17:36:58.600Z,1.87
2018-08-12T17:39:27.364Z,1.60
2018-08-12T17:41:56.119Z,2.03
2018-08-12T17:44:24.889Z,1.90
2018-08-12T17:46:53.685Z,2.10
2018-08-12T17:49:22.447Z,2.40
2018-08-12T17:51:51.242Z,2.20
2018-08-12T17:54:20.006Z,2.33
2018-08-12T17:56:48.740Z,1.53
2018-08-12T17:59:17.649Z,2.03
2018-08-12T18:01:46.521Z,2.40
2018-08-12T18:04:15.256Z,2.47
2018-08-12T18:06:43.970Z,2.23
2018-08-12T18:09:12.759Z,2.20
2018-08-12T18:11:41.497Z,2.20
2018-08-12T18:14:10.253Z,1.80
2018-08-12T18:16:39.117Z,1.70
2018-08-12T18:19:07.799Z,2.63
2018-08-12T18:21:36.536Z,1.83
2018-08-12T18:24:05.261Z,2.10
2018-08-12T18:26:34.014Z,2.07
2018-08-12T18:29:02.875Z,2.40
2018-08-12T18:31:31.620Z,1.83
2018-08-12T18:34:00.437Z,1.97
2018-08-12T18:36:29.217Z,1.87
2018-08-12T18:38:57.957Z,2.13
2018-08-12T18:41:26.718Z,2.00
2018-08-12T18:43:55.456Z,1.80
2018-08-12T18:46:24.260Z,2.90
2018-08-12T18:48:53.073Z,3.53
2018-08-12T18:51:21.891Z,2.20
2018-08-12T18:53:50.619Z,2.43
2018-08-12T18:56:19.540Z,2.60
2018-08-12T18:58:48.323Z,2.50
2018-08-12T19:01:23.523Z,3.00
2018-08-12T19:03:52.392Z,2.80
2018-08-12T19:06:21.182Z,3.30
2018-08-12T19:08:49.924Z,3.30
2018-08-12T19:11:18.653Z,3.23
2018-08-12T19:13:47.400Z,3.30
2018-08-12T19:16:16.178Z,3.50
2018-08-12T19:18:44.949Z,3.00
2018-08-12T19:21:13.778Z,3.23
2018-08-12T19:23:42.504Z,3.23
2018-08-12T19:26:11.271Z,4.17
2018-08-12T19:28:40.065Z,2.87
2018-08-12T19:31:08.824Z,2.47
2018-08-12T19:33:37.620Z,2.63
2018-08-12T19:36:06.348Z,2.70
2018-08-12T19:38:35.243Z,3.07
2018-08-12T19:41:04.135Z,3.17
2018-08-12T19:43:32.916Z,2.53
2018-08-12T19:46:01.637Z,3.00
2018-08-12T19:48:30.389Z,2.33
2018-08-12T19:50:59.056Z,3.07
2018-08-12T19:53:27.909Z,2.63
2018-08-12T19:55:56.634Z,2.63
2018-08-12T19:58:25.421Z,3.40
2018-08-12T20:00:54.329Z,2.30
2018-08-12T20:03:27.683Z,3.00
2018-08-12T20:05:56.480Z,2.60
2018-08-12T20:08:25.344Z,3.30
2018-08-12T20:10:54.251Z,2.67
2018-08-12T20:13:23.008Z,2.50
2018-08-12T20:15:51.799Z,2.43
2018-08-12T20:18:20.638Z,2.43
2018-08-12T20:20:49.340Z,2.67
2018-08-12T20:23:18.208Z,3.27
2018-08-12T20:25:46.976Z,2.90
2018-08-12T20:28:15.841Z,2.63
2018-08-12T20:30:44.634Z,2.53
2018-08-12T20:33:13.396Z,2.57
2018-08-12T20:35:42.180Z,2.40
2018-08-12T20:38:10.933Z,2.30
2018-08-12T20:40:39.801Z,2.63
2018-08-12T20:43:08.544Z,2.43
2018-08-12T20:45:37.233Z,2.93
2018-08-12T20:48:06.584Z,2.60
2018-08-12T20:50:35.320Z,3.33
2018-08-12T20:53:04.151Z,2.43
2018-08-12T20:55:33.046Z,2.30
2018-08-12T20:58:01.830Z,3.03
2018-08-12T21:00:30.561Z,2.40
2018-08-12T21:02:59.387Z,2.57
2018-08-12T21:05:28.112Z,2.37
2018-08-12T21:07:56.846Z,2.43
2018-08-12T21:10:25.612Z,3.10
2018-08-12T21:12:54.426Z,2.83
2018-08-12T21:15:23.227Z,2.23
2018-08-12T21:17:52.022Z,2.90
2018-08-12T21:20:20.738Z,2.90
2018-08-12T21:22:49.620Z,2.80
2018-08-12T21:25:18.390Z,2.87
2018-08-12T21:27:47.175Z,2.53
2018-08-12T21:30:15.863Z,2.40
2018-08-12T21:32:44.556Z,2.50
2018-08-12T21:35:13.332Z,2.70
2018-08-12T21:37:42.110Z,3.33
2018-08-12T21:40:10.952Z,2.47
2018-08-12T21:42:39.956Z,2.50
2018-08-12T21:45:08.795Z,3.20
2018-08-12T21:47:37.472Z,3.20
2018-08-12T21:50:06.440Z,3.37
2018-08-12T21:52:35.152Z,3.30
2018-08-12T21:55:04.084Z,3.30
2018-08-12T21:57:32.861Z,3.20
2018-08-12T22:00:01.604Z,2.80
2018-08-12T22:02:30.436Z,3.27
2018-08-12T22:04:59.183Z,2.73
2018-08-12T22:07:27.908Z,2.77
2018-08-12T22:09:56.676Z,2.80
2018-08-12T22:12:25.494Z,2.80
2018-08-12T22:14:54.307Z,2.80
2018-08-12T22:17:23.124Z,2.83
2018-08-12T22:19:51.993Z,3.07
2018-08-12T22:22:20.708Z,2.97
2018-08-12T22:24:49.467Z,2.40
2018-08-12T22:27:18.170Z,2.50
2018-08-12T22:29:46.985Z,3.13
2018-08-12T22:32:15.749Z,3.10
2018-08-12T22:34:44.513Z,2.37
2018-08-12T22:37:13.258Z,3.20
2018-08-12T22:39:41.972Z,3.47
2018-08-12T22:42:12.823Z,3.60
2018-08-12T22:44:41.575Z,2.70
2018-08-12T22:47:10.387Z,2.87
2018-08-12T22:49:39.164Z,2.80
2018-08-12T22:52:08.011Z,2.47
2018-08-12T22:54:36.738Z,2.57
2018-08-12T22:57:05.520Z,3.37
2018-08-12T22:59:34.296Z,2.87
2018-08-12T23:02:03.118Z,2.60
2018-08-12T23:04:32.018Z,2.80
2018-08-12T23:07:00.824Z,2.40
2018-08-12T23:09:29.594Z,3.63
2018-08-12T23:11:58.351Z,3.70
2018-08-12T23:14:27.091Z,3.07
2018-08-12T23:16:59.726Z,3.37
2018-08-12T23:19:28.932Z,2.60
2018-08-12T23:21:58.097Z,2.87
2018-08-12T23:24:26.862Z,2.70
2018-08-12T23:26:55.629Z,2.37
2018-08-12T23:29:24.377Z,2.80
2018-08-12T23:31:53.127Z,2.57
2018-08-12T23:34:21.874Z,2.43
2018-08-12T23:36:50.633Z,2.40
2018-08-12T23:39:19.384Z,2.60
2018-08-12T23:41:48.139Z,2.23
2018-08-12T23:44:16.879Z,2.10
2018-08-12T23:46:45.720Z,2.33
2018-08-12T23:49:14.461Z,2.00
2018-08-12T23:51:43.291Z,2.47
2018-08-12T23:54:11.965Z,2.30
2018-08-12T23:56:40.713Z,2.50
2018-08-12T23:59:09.423Z,2.70
